createdAt,value
2023-04-28T00:00:41.700Z,57.53
2023-04-28T00:01:41.764Z,57.09
2023-04-28T00:02:41.831Z,57.75
2023-04-28T00:03:41.912Z,55.68
2023-04-28T00:04:41.966Z,57.58
2023-04-28T00:05:41.959Z,58.10
2023-04-28T00:06:41.877Z,55.49
2023-04-28T00:07:41.915Z,53.98
2023-04-28T00:08:41.963Z,53.05
2023-04-28T00:09:41.970Z,55.33
2023-04-28T00:10:42.008Z,55.16
2023-04-28T00:11:42.040Z,55.41
2023-04-28T00:12:42.021Z,53.58
2023-04-28T00:13:42.054Z,53.09
2023-04-28T00:14:42.112Z,53.40
2023-04-28T00:15:42.165Z,53.80
2023-04-28T00:16:42.277Z,54.49
2023-04-28T00:17:42.288Z,54.40
2023-04-28T00:18:42.221Z,55.96
2023-04-28T00:19:42.274Z,54.92
2023-04-28T00:20:42.308Z,55.10
2023-04-28T00:21:42.325Z,55.42
2023-04-28T00:22:42.354Z,56.48
2023-04-28T00:23:42.416Z,56.03
2023-04-28T00:24:42.463Z,55.56
2023-04-28T00:25:42.473Z,56.00
2023-04-28T00:26:42.548Z,55.74
2023-04-28T00:27:42.566Z,55.99
2023-04-28T00:28:42.624Z,54.81
2023-04-28T00:29:42.642Z,54.50
2023-04-28T00:30:42.676Z,53.32
2023-04-28T00:31:42.752Z,53.68
2023-04-28T00:32:42.752Z,54.12
2023-04-28T00:33:42.788Z,55.80
2023-04-28T00:34:42.808Z,52.34
2023-04-28T00:35:42.836Z,50.15
2023-04-28T00:36:42.879Z,53.16
2023-04-28T00:37:42.906Z,51.17
2023-04-28T00:38:42.964Z,51.31
2023-04-28T00:39:42.986Z,48.84
2023-04-28T00:40:42.994Z,49.25
2023-04-28T00:41:43.085Z,47.50
2023-04-28T00:42:43.086Z,47.73
2023-04-28T00:43:43.145Z,49.07
2023-04-28T00:44:43.179Z,47.15
2023-04-28T00:45:43.225Z,47.90
2023-04-28T00:46:43.248Z,46.42
2023-04-28T00:47:43.311Z,43.27
2023-04-28T00:48:43.341Z,44.20
2023-04-28T00:49:43.424Z,44.10
2023-04-28T00:50:43.425Z,47.09
2023-04-28T00:51:43.483Z,51.40
2023-04-28T00:52:43.511Z,54.81
2023-04-28T00:53:43.539Z,53.63
2023-04-28T00:54:43.582Z,56.00
2023-04-28T00:55:43.646Z,56.67
2023-04-28T00:56:43.687Z,55.49
2023-04-28T00:57:43.737Z,54.53
2023-04-28T00:58:43.759Z,53.59
2023-04-28T00:59:43.816Z,55.38
2023-04-28T01:00:43.851Z,55.45
2023-04-28T01:01:43.953Z,55.65
2023-04-28T01:02:43.999Z,53.51
2023-04-28T01:03:44.232Z,55.41
2023-04-28T01:04:44.152Z,53.86
2023-04-28T01:05:44.087Z,52.77
2023-04-28T01:06:44.140Z,51.64
2023-04-28T01:07:44.211Z,49.85
2023-04-28T01:08:44.212Z,49.50
2023-04-28T01:09:44.251Z,52.13
2023-04-28T01:10:44.308Z,52.74
2023-04-28T01:11:44.369Z,52.12
2023-04-28T01:12:44.396Z,53.45
2023-04-28T01:13:44.457Z,54.18
2023-04-28T01:14:44.494Z,53.09
2023-04-28T01:15:44.533Z,51.63
2023-04-28T01:16:44.609Z,53.17
2023-04-28T01:17:44.675Z,54.16
2023-04-28T01:18:44.691Z,52.79
2023-04-28T01:19:44.728Z,52.72
2023-04-28T01:20:44.788Z,50.82
2023-04-28T01:21:44.815Z,52.92
2023-04-28T01:22:44.866Z,52.71
2023-04-28T01:23:44.919Z,54.44
2023-04-28T01:24:44.970Z,53.18
2023-04-28T01:25:44.989Z,52.54
2023-04-28T01:26:45.085Z,53.11
2023-04-28T01:27:45.116Z,54.01
2023-04-28T01:28:45.128Z,51.97
2023-04-28T01:29:45.176Z,51.66
2023-04-28T01:30:45.242Z,50.67
2023-04-28T01:31:45.296Z,49.53
2023-04-28T01:32:45.363Z,49.75
2023-04-28T01:33:45.357Z,50.67
2023-04-28T01:34:45.417Z,49.78
2023-04-28T01:35:45.501Z,48.38
2023-04-28T01:36:45.553Z,46.91
2023-04-28T01:37:45.577Z,47.84
2023-04-28T01:38:45.620Z,48.00
2023-04-28T01:39:45.681Z,48.75
2023-04-28T01:40:45.736Z,48.41
2023-04-28T01:41:45.776Z,47.26
2023-04-28T01:42:45.846Z,46.42
2023-04-28T01:43:45.877Z,47.74
2023-04-28T01:44:45.941Z,46.89
2023-04-28T01:45:46.017Z,47.64
2023-04-28T01:46:45.997Z,46.69
2023-04-28T01:47:46.087Z,46.28
2023-04-28T01:48:46.155Z,45.36
2023-04-28T01:49:46.184Z,43.18
2023-04-28T01:50:46.235Z,43.37
2023-04-28T01:51:46.278Z,44.71
2023-04-28T01:52:46.303Z,47.44
2023-04-28T01:53:46.373Z,46.61
2023-04-28T01:54:46.422Z,47.75
2023-04-28T01:55:46.466Z,45.60
2023-04-28T01:56:46.499Z,46.52
2023-04-28T01:57:46.573Z,46.35
2023-04-28T01:58:46.648Z,44.82
2023-04-28T01:59:46.673Z,45.37
2023-04-28T02:00:46.749Z,45.40
2023-04-28T02:01:46.800Z,43.63
2023-04-28T02:02:46.889Z,45.16
2023-04-28T02:03:47.120Z,45.71
2023-04-28T02:04:46.980Z,43.96
2023-04-28T02:05:47.013Z,45.85
2023-04-28T02:06:47.022Z,45.06
2023-04-28T02:07:47.093Z,47.02
2023-04-28T02:08:47.151Z,45.16
2023-04-28T02:09:47.194Z,46.64
2023-04-28T02:10:47.242Z,47.05
2023-04-28T02:11:47.297Z,45.01
2023-04-28T02:12:47.326Z,44.11
2023-04-28T02:13:47.374Z,45.27
2023-04-28T02:14:47.464Z,44.63
2023-04-28T02:15:47.516Z,42.75
2023-04-28T02:16:47.576Z,43.88
2023-04-28T02:17:47.680Z,42.93
2023-04-28T02:18:47.683Z,43.69
2023-04-28T02:19:47.733Z,42.05
2023-04-28T02:20:47.805Z,43.49
2023-04-28T02:21:47.857Z,44.49
2023-04-28T02:22:47.896Z,43.91
2023-04-28T02:23:47.982Z,44.22
2023-04-28T02:24:48.068Z,43.79
2023-04-28T02:25:48.102Z,42.26
2023-04-28T02:26:48.169Z,44.40
2023-04-28T02:27:48.213Z,43.43
2023-04-28T02:28:48.286Z,44.78
2023-04-28T02:29:48.334Z,45.08
2023-04-28T02:30:48.410Z,47.07
2023-04-28T02:31:48.592Z,47.44
2023-04-28T02:32:48.525Z,50.91
2023-04-28T02:33:48.570Z,50.64
2023-04-28T02:34:48.647Z,51.67
2023-04-28T02:35:48.671Z,51.33
2023-04-28T02:36:48.790Z,50.75
2023-04-28T02:37:48.830Z,49.64
2023-04-28T02:38:48.880Z,50.73
2023-04-28T02:39:48.911Z,50.91
2023-04-28T02:40:48.985Z,51.67
2023-04-28T02:41:49.051Z,54.02
2023-04-28T02:42:49.110Z,54.72
2023-04-28T02:43:49.172Z,54.78
2023-04-28T02:44:49.201Z,55.08
2023-04-28T02:45:49.266Z,56.75
2023-04-28T02:46:49.394Z,57.13
2023-04-28T02:47:49.426Z,58.64
2023-04-28T02:48:49.465Z,58.63
2023-04-28T02:49:49.525Z,61.56
2023-04-28T02:50:49.562Z,62.79
2023-04-28T02:51:49.635Z,64.30
2023-04-28T02:52:49.742Z,61.90
2023-04-28T02:53:49.761Z,63.53
2023-04-28T02:54:49.825Z,63.71
2023-04-28T02:55:49.865Z,63.42
2023-04-28T02:56:49.961Z,66.68
2023-04-28T02:57:50.007Z,65.99
2023-04-28T02:58:50.069Z,65.70
2023-04-28T02:59:50.108Z,65.99
2023-04-28T03:00:50.345Z,64.51
2023-04-28T03:01:50.301Z,66.12
2023-04-28T03:02:50.320Z,67.20
2023-04-28T03:03:50.441Z,65.80
2023-04-28T03:04:50.490Z,66.09
2023-04-28T03:05:50.484Z,66.85
2023-04-28T03:06:50.592Z,67.24
2023-04-28T03:07:50.668Z,68.25
2023-04-28T03:08:50.711Z,67.36
2023-04-28T03:09:50.748Z,68.65
2023-04-28T03:10:50.821Z,70.57
2023-04-28T03:11:50.868Z,73.93
2023-04-28T03:12:50.910Z,74.85
2023-04-28T03:13:51.040Z,76.00
2023-04-28T03:14:51.071Z,77.92
2023-04-28T03:15:51.137Z,80.68
2023-04-28T03:16:51.218Z,81.12
2023-04-28T03:17:51.274Z,83.51
2023-04-28T03:18:51.313Z,85.20
2023-04-28T03:19:51.366Z,87.74
2023-04-28T03:20:51.385Z,88.63
2023-04-28T03:21:51.478Z,89.82
2023-04-28T03:22:51.509Z,91.94
2023-04-28T03:23:51.573Z,93.64
2023-04-28T03:24:51.648Z,94.18
2023-04-28T03:25:51.697Z,93.91
2023-04-28T03:26:51.756Z,96.31
2023-04-28T03:27:51.785Z,95.32
2023-04-28T03:28:51.856Z,96.21
2023-04-28T03:29:51.918Z,95.95
2023-04-28T03:30:51.996Z,97.63
2023-04-28T03:31:52.074Z,98.28
2023-04-28T03:32:52.102Z,98.28
2023-04-28T03:33:52.102Z,98.65
2023-04-28T03:34:52.206Z,100.80
2023-04-28T03:35:52.211Z,101.13
2023-04-28T03:36:52.254Z,102.02
2023-04-28T03:37:52.268Z,102.04
2023-04-28T03:38:52.310Z,103.11
2023-04-28T03:39:52.349Z,103.61
2023-04-28T03:40:52.372Z,104.06
2023-04-28T03:41:52.413Z,105.95
2023-04-28T03:42:52.447Z,105.03
2023-04-28T03:43:52.422Z,106.62
2023-04-28T03:44:52.483Z,107.60
2023-04-28T03:45:52.647Z,104.93
2023-04-28T03:46:52.564Z,106.55
2023-04-28T03:47:52.625Z,106.23
2023-04-28T03:48:52.609Z,107.45
2023-04-28T03:49:52.673Z,106.94
2023-04-28T03:50:52.674Z,106.42
2023-04-28T03:51:52.746Z,107.06
2023-04-28T03:52:52.778Z,108.55
2023-04-28T03:53:52.818Z,109.08
2023-04-28T03:54:52.834Z,109.09
2023-04-28T03:55:52.862Z,110.14
2023-04-28T03:56:52.885Z,112.45
2023-04-28T03:57:52.928Z,111.47
2023-04-28T03:58:52.938Z,112.64
2023-04-28T03:59:52.994Z,112.78
2023-04-28T04:00:52.996Z,113.89
2023-04-28T04:01:53.026Z,114.84
2023-04-28T04:02:53.190Z,115.23
2023-04-28T04:03:53.260Z,115.65
2023-04-28T04:04:53.315Z,115.47
2023-04-28T04:05:53.146Z,116.59
2023-04-28T04:06:53.060Z,117.07
2023-04-28T04:07:53.100Z,117.40
2023-04-28T04:08:53.131Z,118.03
2023-04-28T04:09:53.143Z,119.25
2023-04-28T04:10:53.143Z,118.17
2023-04-28T04:11:53.160Z,117.66
2023-04-28T04:12:53.149Z,116.47
2023-04-28T04:13:53.152Z,115.84
2023-04-28T04:14:53.192Z,116.22
2023-04-28T04:15:53.209Z,115.42
2023-04-28T04:16:53.214Z,114.80
2023-04-28T04:17:53.198Z,114.94
2023-04-28T04:18:53.212Z,113.31
2023-04-28T04:19:53.229Z,113.82
2023-04-28T04:20:53.197Z,113.57
2023-04-28T04:21:53.174Z,114.25
2023-04-28T04:22:53.201Z,113.36
2023-04-28T04:23:53.225Z,113.82
2023-04-28T04:24:53.244Z,113.73
2023-04-28T04:25:53.222Z,114.07
2023-04-28T04:26:53.237Z,110.94
2023-04-28T04:27:53.275Z,111.38
2023-04-28T04:28:53.318Z,111.90
2023-04-28T04:29:53.300Z,112.93
2023-04-28T04:30:53.405Z,112.61
2023-04-28T04:31:53.332Z,114.06
2023-04-28T04:32:53.408Z,115.72
2023-04-28T04:33:53.380Z,116.51
2023-04-28T04:34:53.377Z,116.63
2023-04-28T04:35:53.389Z,118.39
2023-04-28T04:36:53.436Z,119.26
2023-04-28T04:37:53.424Z,121.71
2023-04-28T04:38:54.481Z,121.85
2023-04-28T04:39:53.428Z,122.12
2023-04-28T04:40:53.468Z,122.42
2023-04-28T04:41:53.466Z,123.20
2023-04-28T04:42:53.484Z,123.34
2023-04-28T04:43:53.520Z,125.73
2023-04-28T04:44:53.526Z,124.58
2023-04-28T04:45:53.505Z,125.54
2023-04-28T04:46:53.601Z,125.76
2023-04-28T04:47:53.530Z,125.27
2023-04-28T04:48:53.533Z,124.81
2023-04-28T04:49:53.552Z,126.48
2023-04-28T04:50:53.571Z,127.44
2023-04-28T04:51:53.623Z,127.89
2023-04-28T04:52:53.752Z,129.09
2023-04-28T04:53:53.747Z,132.70
2023-04-28T04:54:53.805Z,135.43
2023-04-28T04:55:53.871Z,136.10
2023-04-28T04:56:53.944Z,137.38
2023-04-28T04:57:54.003Z,136.01
2023-04-28T04:58:54.054Z,137.28
2023-04-28T04:59:54.079Z,137.50
2023-04-28T05:00:54.143Z,137.98
2023-04-28T05:01:54.261Z,139.42
2023-04-28T05:02:54.344Z,139.09
2023-04-28T05:03:54.461Z,140.98
2023-04-28T05:04:57.580Z,142.71
2023-04-28T05:05:55.344Z,142.89
2023-04-28T05:06:54.324Z,143.47
2023-04-28T05:07:54.335Z,145.03
2023-04-28T05:08:54.324Z,145.01
2023-04-28T05:09:54.293Z,149.97
2023-04-28T05:10:54.291Z,150.83
2023-04-28T05:11:54.290Z,152.40
2023-04-28T05:12:54.324Z,154.83
2023-04-28T05:13:54.278Z,156.50
2023-04-28T05:14:54.289Z,156.63
2023-04-28T05:15:54.282Z,156.81
2023-04-28T05:16:54.348Z,156.56
2023-04-28T05:17:54.335Z,160.73
2023-04-28T05:18:54.305Z,161.51
2023-04-28T05:19:54.323Z,161.61
2023-04-28T05:20:54.406Z,164.64
2023-04-28T05:21:54.407Z,165.60
2023-04-28T05:22:54.453Z,169.59
2023-04-28T05:23:54.494Z,168.18
2023-04-28T05:24:55.158Z,170.72
2023-04-28T05:25:54.559Z,172.50
2023-04-28T05:26:54.617Z,174.75
2023-04-28T05:27:54.596Z,174.88
2023-04-28T05:28:54.664Z,175.16
2023-04-28T05:29:54.688Z,179.05
2023-04-28T05:30:54.700Z,179.51
2023-04-28T05:31:54.750Z,179.10
2023-04-28T05:32:54.783Z,180.78
2023-04-28T05:33:54.791Z,181.63
2023-04-28T05:34:54.791Z,180.87
2023-04-28T05:35:54.817Z,181.11
2023-04-28T05:36:54.844Z,184.34
2023-04-28T05:37:54.886Z,189.01
2023-04-28T05:38:54.924Z,189.72
2023-04-28T05:39:54.906Z,206.54
2023-04-28T05:40:54.941Z,202.93
2023-04-28T05:41:54.957Z,203.89
2023-04-28T05:42:54.956Z,209.89
2023-04-28T05:43:55.004Z,216.66
2023-04-28T05:44:55.012Z,215.42
2023-04-28T05:45:55.101Z,220.91
2023-04-28T05:46:55.071Z,227.92
2023-04-28T05:47:55.279Z,227.88
2023-04-28T05:48:55.023Z,227.10
2023-04-28T05:49:55.042Z,236.80
2023-04-28T05:50:55.031Z,236.73
2023-04-28T05:51:55.063Z,240.91
2023-04-28T05:52:55.025Z,248.44
2023-04-28T05:53:55.035Z,249.40
2023-04-28T05:54:55.034Z,249.25
2023-04-28T05:55:55.048Z,250.32
2023-04-28T05:56:55.113Z,249.30
2023-04-28T05:57:55.206Z,249.62
2023-04-28T05:58:55.233Z,249.64
2023-04-28T05:59:55.322Z,250.20
2023-04-28T06:00:55.367Z,248.92
2023-04-28T06:01:55.430Z,249.23
2023-04-28T06:02:55.645Z,249.96
2023-04-28T06:03:55.672Z,249.58
2023-04-28T06:04:56.049Z,250.00
2023-04-28T06:05:55.658Z,249.66
2023-04-28T06:06:55.659Z,247.37
2023-04-28T06:07:55.761Z,248.42
2023-04-28T06:08:55.766Z,249.08
2023-04-28T06:09:55.807Z,250.00
2023-04-28T06:10:55.848Z,249.45
2023-04-28T06:11:55.872Z,250.00
2023-04-28T06:12:55.912Z,249.14
2023-04-28T06:13:55.929Z,249.17
2023-04-28T06:14:55.957Z,249.80
2023-04-28T06:15:56.000Z,249.16
2023-04-28T06:16:55.977Z,249.16
2023-04-28T06:17:56.159Z,248.18
2023-04-28T06:18:56.079Z,249.36
2023-04-28T06:19:56.053Z,249.64
2023-04-28T06:20:56.120Z,249.68
2023-04-28T06:21:56.156Z,250.00
2023-04-28T06:22:56.175Z,249.36
2023-04-28T06:23:56.135Z,249.50
2023-04-28T06:24:56.177Z,250.00
2023-04-28T06:25:56.186Z,248.44
2023-04-28T06:26:56.190Z,248.82
2023-04-28T06:27:56.197Z,248.65
2023-04-28T06:28:56.237Z,249.41
2023-04-28T06:29:56.275Z,248.11
2023-04-28T06:30:56.249Z,250.00
2023-04-28T06:31:56.236Z,249.31
2023-04-28T06:32:56.282Z,250.00
2023-04-28T06:33:56.192Z,249.68
2023-04-28T06:34:58.378Z,249.73
2023-04-28T06:35:56.204Z,249.65
2023-04-28T06:36:56.242Z,249.09
2023-04-28T06:37:56.222Z,248.32
2023-04-28T06:38:56.240Z,249.93
2023-04-28T06:39:56.213Z,250.00
2023-04-28T06:40:56.211Z,247.98
2023-04-28T06:41:56.212Z,247.91
2023-04-28T06:42:56.198Z,248.02
2023-04-28T06:43:56.200Z,249.48
2023-04-28T06:44:56.180Z,249.26
2023-04-28T06:45:56.217Z,250.00
2023-04-28T06:46:56.256Z,249.40
2023-04-28T06:47:56.761Z,249.83
2023-04-28T06:48:56.198Z,247.73
2023-04-28T06:49:56.234Z,247.33
2023-04-28T06:50:56.223Z,248.93
2023-04-28T06:51:56.249Z,248.49
2023-04-28T06:52:56.226Z,248.19
2023-04-28T06:53:56.229Z,248.21
2023-04-28T06:54:56.249Z,248.35
2023-04-28T06:55:56.330Z,247.67
2023-04-28T06:56:56.318Z,249.13
2023-04-28T06:57:56.699Z,249.39
2023-04-28T06:58:56.431Z,249.83
2023-04-28T06:59:56.413Z,248.45
2023-04-28T07:00:56.498Z,249.78
2023-04-28T07:01:56.482Z,249.71
2023-04-28T07:02:56.679Z,248.86
2023-04-28T07:03:56.590Z,248.99
2023-04-28T07:04:56.520Z,249.72
2023-04-28T07:05:56.579Z,248.71
2023-04-28T07:06:56.624Z,249.77
2023-04-28T07:07:56.682Z,250.00
2023-04-28T07:08:56.748Z,249.44
2023-04-28T07:09:56.810Z,248.68
2023-04-28T07:10:56.898Z,249.12
2023-04-28T07:11:56.919Z,250.00
2023-04-28T07:12:56.969Z,249.70
2023-04-28T07:13:57.049Z,250.00
2023-04-28T07:14:57.257Z,249.55
2023-04-28T07:15:57.195Z,249.10
2023-04-28T07:16:57.239Z,249.50
2023-04-28T07:17:57.318Z,249.01
2023-04-28T07:18:57.364Z,249.15
2023-04-28T07:19:57.404Z,249.00
2023-04-28T07:20:57.487Z,248.07
2023-04-28T07:21:57.557Z,248.34
2023-04-28T07:22:57.581Z,249.67
2023-04-28T07:23:57.642Z,249.42
2023-04-28T07:24:57.691Z,250.00
2023-04-28T07:25:57.764Z,248.37
2023-04-28T07:26:57.823Z,250.00
2023-04-28T07:27:57.891Z,250.00
2023-04-28T07:28:57.974Z,250.00
2023-04-28T07:29:58.265Z,250.51
2023-04-28T07:30:58.281Z,247.96
2023-04-28T07:31:58.151Z,248.65
2023-04-28T07:32:58.242Z,249.88
2023-04-28T07:33:58.202Z,250.00
2023-04-28T07:34:58.275Z,249.58
2023-04-28T07:35:58.323Z,248.81
2023-04-28T07:36:59.212Z,246.70
2023-04-28T07:37:58.683Z,246.47
2023-04-28T07:38:58.430Z,246.86
2023-04-28T07:39:58.517Z,248.42
2023-04-28T07:40:58.586Z,249.73
2023-04-28T07:41:58.602Z,250.00
2023-04-28T07:42:58.700Z,247.59
2023-04-28T07:43:58.673Z,245.45
2023-04-28T07:44:58.749Z,245.47
2023-04-28T07:45:58.828Z,246.17
2023-04-28T07:46:58.848Z,244.19
2023-04-28T07:47:59.250Z,244.13
2023-04-28T07:48:58.942Z,241.70
2023-04-28T07:49:59.015Z,240.62
2023-04-28T07:50:59.047Z,239.86
2023-04-28T07:51:59.117Z,238.80
2023-04-28T07:52:59.198Z,239.57
2023-04-28T07:53:59.218Z,238.22
2023-04-28T07:54:59.308Z,236.25
2023-04-28T07:55:59.350Z,234.00
2023-04-28T07:56:59.429Z,233.11
2023-04-28T07:57:59.487Z,230.78
2023-04-28T07:58:59.565Z,228.10
2023-04-28T07:59:59.616Z,224.74
2023-04-28T08:00:59.669Z,225.20
2023-04-28T08:01:59.757Z,225.13
2023-04-28T08:02:59.935Z,225.51
2023-04-28T08:04:00.021Z,225.67
2023-04-28T08:05:00.221Z,224.98
2023-04-28T08:06:00.013Z,225.43
2023-04-28T08:07:00.014Z,225.37
2023-04-28T08:08:00.096Z,224.83
2023-04-28T08:09:00.158Z,224.87
2023-04-28T08:10:00.209Z,225.24
2023-04-28T08:11:00.297Z,225.28
2023-04-28T08:12:00.370Z,225.43
2023-04-28T08:13:00.424Z,225.27
2023-04-28T08:14:00.496Z,224.90
2023-04-28T08:15:00.525Z,223.81
2023-04-28T08:16:00.643Z,224.37
2023-04-28T08:17:00.650Z,225.03
2023-04-28T08:18:00.746Z,224.78
2023-04-28T08:19:00.831Z,224.41
2023-04-28T08:20:00.824Z,223.71
2023-04-28T08:21:00.869Z,222.99
2023-04-28T08:22:00.920Z,223.30
2023-04-28T08:23:00.994Z,223.03
2023-04-28T08:24:01.024Z,223.58
2023-04-28T08:25:01.150Z,224.46
2023-04-28T08:26:01.151Z,224.39
2023-04-28T08:27:01.208Z,220.76
2023-04-28T08:28:01.348Z,219.36
2023-04-28T08:29:01.345Z,219.54
2023-04-28T08:30:01.408Z,216.93
2023-04-28T08:31:01.474Z,216.86
2023-04-28T08:32:01.474Z,214.10
2023-04-28T08:33:01.691Z,215.13
2023-04-28T08:34:01.618Z,214.42
2023-04-28T08:35:01.647Z,215.21
2023-04-28T08:36:01.748Z,216.57
2023-04-28T08:37:01.786Z,218.96
2023-04-28T08:38:01.846Z,219.66
2023-04-28T08:39:01.902Z,217.30
2023-04-28T08:40:01.998Z,215.75
2023-04-28T08:41:02.043Z,213.60
2023-04-28T08:42:02.078Z,213.01
2023-04-28T08:43:02.128Z,211.56
2023-04-28T08:44:02.196Z,209.90
2023-04-28T08:45:03.212Z,208.33
2023-04-28T08:46:02.320Z,207.78
2023-04-28T08:47:02.497Z,207.71
2023-04-28T08:48:02.521Z,205.75
2023-04-28T08:49:02.517Z,202.89
2023-04-28T08:50:02.577Z,203.16
2023-04-28T08:51:02.609Z,203.67
2023-04-28T08:52:02.690Z,202.41
2023-04-28T08:53:02.739Z,203.55
2023-04-28T08:55:02.763Z,204.55
2023-04-28T08:56:02.753Z,202.59
2023-04-28T08:57:02.774Z,201.95
2023-04-28T08:58:02.770Z,201.61
2023-04-28T08:59:02.727Z,201.51
2023-04-28T09:00:02.720Z,200.25
2023-04-28T09:01:02.745Z,200.31
2023-04-28T09:02:02.752Z,199.01
2023-04-28T09:03:02.840Z,196.60
2023-04-28T09:04:02.959Z,196.48
2023-04-28T09:05:02.830Z,195.65
2023-04-28T09:06:02.680Z,194.72
2023-04-28T09:07:02.751Z,195.77
2023-04-28T09:08:02.711Z,196.72
2023-04-28T09:09:02.755Z,198.41
2023-04-28T09:10:02.680Z,196.86
2023-04-28T09:11:02.673Z,195.14
2023-04-28T09:12:02.647Z,195.04
2023-04-28T09:13:02.659Z,193.96
2023-04-28T09:14:02.633Z,193.36
2023-04-28T09:15:02.641Z,188.13
2023-04-28T09:16:02.608Z,188.63
2023-04-28T09:17:02.625Z,188.93
2023-04-28T09:18:02.771Z,187.07
2023-04-28T09:19:02.587Z,186.98
2023-04-28T09:20:02.610Z,186.56
2023-04-28T09:21:02.615Z,186.52
2023-04-28T09:22:10.483Z,187.37
2023-04-28T09:23:03.745Z,187.46
2023-04-28T09:24:02.564Z,187.80
2023-04-28T09:25:02.546Z,187.46
2023-04-28T09:26:02.580Z,187.50
2023-04-28T09:27:02.541Z,185.12
2023-04-28T09:28:02.524Z,185.26
2023-04-28T09:29:02.518Z,185.25
2023-04-28T09:30:02.519Z,184.88
2023-04-28T09:31:02.503Z,183.63
2023-04-28T09:32:02.532Z,183.87
2023-04-28T09:33:02.500Z,183.95
2023-04-28T09:34:02.498Z,183.51
2023-04-28T09:35:02.479Z,183.87
2023-04-28T09:36:02.490Z,184.59
2023-04-28T09:37:02.501Z,189.21
2023-04-28T09:38:02.452Z,188.60
2023-04-28T09:39:02.760Z,189.14
2023-04-28T09:40:02.446Z,191.13
2023-04-28T09:41:02.485Z,186.59
2023-04-28T09:42:02.468Z,185.87
2023-04-28T09:43:15.079Z,187.35
2023-04-28T09:44:03.756Z,187.52
2023-04-28T09:45:02.440Z,188.08
2023-04-28T09:46:02.491Z,189.26
2023-04-28T09:47:02.420Z,187.44
2023-04-28T09:48:02.445Z,190.49
2023-04-28T09:49:02.739Z,194.69
2023-04-28T09:50:02.400Z,194.69
2023-04-28T09:51:02.395Z,192.49
2023-04-28T09:52:02.399Z,184.01
2023-04-28T09:53:02.456Z,186.86
2023-04-28T09:54:02.492Z,168.97
2023-04-28T09:55:02.528Z,172.34
2023-04-28T09:56:02.471Z,175.01
2023-04-28T09:57:02.543Z,162.94
2023-04-28T09:58:02.535Z,167.42
2023-04-28T09:59:02.561Z,158.96
2023-04-28T10:00:02.537Z,154.48
2023-04-28T10:01:02.594Z,148.13
2023-04-28T10:02:12.762Z,154.78
2023-04-28T10:03:03.666Z,151.14
2023-04-28T10:04:02.759Z,145.08
2023-04-28T10:05:02.991Z,151.58
2023-04-28T10:06:02.566Z,152.03
2023-04-28T10:07:02.523Z,156.56
2023-04-28T10:08:02.589Z,159.22
2023-04-28T10:09:02.750Z,151.17
2023-04-28T10:10:02.551Z,149.34
2023-04-28T10:11:02.532Z,150.08
2023-04-28T10:12:02.523Z,137.86
2023-04-28T10:13:02.512Z,145.46
2023-04-28T10:14:02.504Z,142.72
2023-04-28T10:15:02.485Z,137.37
2023-04-28T10:16:02.532Z,136.43
2023-04-28T10:17:02.469Z,137.95
2023-04-28T10:18:02.515Z,141.20
2023-04-28T10:19:02.473Z,141.85
2023-04-28T10:20:02.489Z,143.69
2023-04-28T10:21:02.453Z,146.24
2023-04-28T10:22:02.450Z,136.48
2023-04-28T10:23:02.451Z,138.09
2023-04-28T10:24:02.484Z,143.45
2023-04-28T10:25:02.507Z,146.83
2023-04-28T10:26:02.494Z,144.03
2023-04-28T10:27:02.525Z,147.27
2023-04-28T10:28:02.552Z,150.47
2023-04-28T10:29:02.586Z,154.50
2023-04-28T10:30:03.925Z,152.44
2023-04-28T10:31:02.648Z,157.55
2023-04-28T10:32:02.634Z,164.38
2023-04-28T10:33:02.735Z,167.65
2023-04-28T10:34:02.687Z,168.91
2023-04-28T10:35:02.676Z,171.49
2023-04-28T10:36:02.672Z,171.87
2023-04-28T10:37:02.715Z,174.46
2023-04-28T10:38:02.665Z,174.15
2023-04-28T10:39:02.813Z,173.52
2023-04-28T10:40:02.750Z,173.86
2023-04-28T10:41:02.801Z,180.74
2023-04-28T10:42:02.868Z,183.50
2023-04-28T10:43:02.987Z,183.11
2023-04-28T10:44:02.944Z,180.66
2023-04-28T10:45:03.023Z,179.87
2023-04-28T10:46:03.126Z,186.03
2023-04-28T10:47:03.109Z,183.24
2023-04-28T10:48:03.191Z,180.84
2023-04-28T10:49:03.226Z,175.94
2023-04-28T10:50:03.288Z,177.55
2023-04-28T10:51:03.355Z,175.12
2023-04-28T10:52:03.382Z,180.17
2023-04-28T10:53:03.463Z,185.95
2023-04-28T10:54:03.505Z,188.35
2023-04-28T10:55:15.785Z,189.03
2023-04-28T10:56:04.573Z,189.17
2023-04-28T10:57:03.547Z,189.82
2023-04-28T10:58:03.530Z,191.29
2023-04-28T10:59:03.553Z,192.16
2023-04-28T11:00:03.522Z,193.55
2023-04-28T11:01:03.532Z,189.73
2023-04-28T11:02:03.588Z,190.71
2023-04-28T11:03:03.563Z,189.84
2023-04-28T11:04:03.807Z,189.92
2023-04-28T11:05:03.532Z,192.95
2023-04-28T11:06:03.506Z,193.98
2023-04-28T11:07:03.501Z,195.70
2023-04-28T11:08:03.529Z,197.30
2023-04-28T11:09:03.503Z,196.53
2023-04-28T11:10:03.548Z,196.49
2023-04-28T11:11:03.613Z,196.66
2023-04-28T11:12:03.593Z,197.60
2023-04-28T11:13:03.644Z,197.57
2023-04-28T11:14:03.688Z,197.23
2023-04-28T11:15:03.694Z,196.81
2023-04-28T11:16:03.853Z,195.99
2023-04-28T11:17:03.779Z,195.19
2023-04-28T11:18:03.811Z,196.90
2023-04-28T11:19:03.844Z,197.06
2023-04-28T11:20:03.820Z,198.81
2023-04-28T11:21:03.845Z,197.68
2023-04-28T11:22:03.889Z,199.02
2023-04-28T11:23:03.889Z,198.66
2023-04-28T11:24:03.885Z,199.43
2023-04-28T11:25:03.886Z,203.41
2023-04-28T11:26:03.906Z,205.64
2023-04-28T11:27:03.956Z,208.20
2023-04-28T11:28:03.993Z,210.16
2023-04-28T11:29:04.300Z,210.45
2023-04-28T11:30:04.006Z,212.56
2023-04-28T11:31:04.023Z,217.48
2023-04-28T11:32:04.235Z,219.88
2023-04-28T11:33:04.117Z,219.64
2023-04-28T11:34:04.271Z,220.12
2023-04-28T11:35:04.099Z,220.50
2023-04-28T11:36:04.098Z,222.40
2023-04-28T11:37:04.146Z,220.96
2023-04-28T11:38:04.185Z,218.81
2023-04-28T11:39:04.195Z,219.45
2023-04-28T11:40:04.195Z,216.13
2023-04-28T11:41:04.233Z,214.71
2023-04-28T11:42:04.290Z,216.68
2023-04-28T11:43:04.311Z,213.84
2023-04-28T11:44:04.380Z,212.97
2023-04-28T11:45:04.371Z,210.29
2023-04-28T11:46:04.494Z,209.93
2023-04-28T11:47:04.882Z,208.91
2023-04-28T11:48:04.517Z,206.68
2023-04-28T11:49:04.580Z,206.24
2023-04-28T11:50:04.601Z,206.27
2023-04-28T11:51:04.618Z,204.44
2023-04-28T11:52:04.693Z,206.25
2023-04-28T11:53:04.729Z,208.01
2023-04-28T11:54:04.825Z,208.02
2023-04-28T11:55:04.846Z,211.03
2023-04-28T11:56:04.931Z,210.31
2023-04-28T11:57:05.030Z,206.82
2023-04-28T11:58:05.033Z,206.13
2023-04-28T11:59:05.091Z,204.06
2023-04-28T12:00:05.495Z,200.05
2023-04-28T12:01:05.216Z,196.15
2023-04-28T12:02:05.293Z,194.80
2023-04-28T12:03:05.419Z,195.92
2023-04-28T12:04:05.518Z,197.73
2023-04-28T12:05:05.538Z,200.51
2023-04-28T12:06:05.533Z,198.95
2023-04-28T12:07:05.574Z,197.78
2023-04-28T12:08:05.669Z,199.38
2023-04-28T12:09:05.684Z,199.53
2023-04-28T12:10:05.775Z,199.90
2023-04-28T12:11:05.824Z,201.18
2023-04-28T12:12:05.946Z,200.11
2023-04-28T12:13:05.951Z,201.90
2023-04-28T12:14:06.036Z,203.35
2023-04-28T12:15:06.078Z,201.93
2023-04-28T12:16:06.238Z,203.08
2023-04-28T12:17:06.213Z,199.59
2023-04-28T12:18:06.347Z,200.84
2023-04-28T12:19:06.380Z,198.75
2023-04-28T12:20:06.459Z,195.10
2023-04-28T12:21:06.493Z,192.92
2023-04-28T12:22:06.532Z,193.33
2023-04-28T12:23:06.593Z,194.29
2023-04-28T12:24:06.680Z,197.23
2023-04-28T12:25:06.770Z,197.57
2023-04-28T12:26:06.778Z,197.95
2023-04-28T12:27:06.857Z,199.46
2023-04-28T12:28:06.941Z,200.24
2023-04-28T12:29:06.982Z,202.81
2023-04-28T12:30:07.086Z,202.09
2023-04-28T12:31:07.136Z,202.83
2023-04-28T12:32:07.184Z,203.39
2023-04-28T12:33:07.283Z,202.85
2023-04-28T12:34:07.300Z,200.18
2023-04-28T12:35:07.368Z,200.93
2023-04-28T12:36:07.419Z,200.08
2023-04-28T12:37:07.477Z,201.59